Minerva Joy — 9HA3334 — position and weather

sailwx.info

Track history (hours):
 
Tides and Currents Weather Stations Pressure Air Temp Water Temp Dewpoint Dewpoint Depression Visibility Wind Speed Wind Dir Waves Ship Positions

Minerva Joy

Last reported at 2018-Jun-09 04:24 UTC. Time now 2018-Jun-23 04:36 UTC.
Position N 29°11' W 093°40'.
Warning: this ship's position is 14 days out of date.

Length 179 m; draft 12.1 m.

Type: Ship. MMSI: 229446000.

Date/timePositionNaut miles runAvg speedWind from/ knotsBaromVisibWave heightAir tempDewpointWater temp
2018-Jun-09 04:24N 29°11' W 093°40'410.6
2018-Jun-09 04:01N 29°15' W 093°40'5 9.9
2018-Jun-09 03:28N 29°20' W 093°40'4 9.6
2018-Jun-09 03:00N 29°24' W 093°40'4 7.9
2018-Jun-09 02:30N 29°28' W 093°40'5 9.6
2018-Jun-09 01:57N 29°32' W 093°44'410.1
2018-Jun-09 01:30N 29°35' W 093°48'5 9.9
2018-Jun-09 01:01N 29°40' W 093°50'5 9.4
2018-Jun-09 00:30N 29°44' W 093°52'4 8.3
2018-Jun-09 00:01N 29°46' W 093°56'4 7.0
2018-Jun-08 23:30N 29°50' W 093°58'1 2.1
2018-Jun-08 23:00N 29°51' W 093°58'0 0.1
2018-Jun-08 22:28N 29°51' W 093°58'0 0.0
2018-Jun-08 21:55N 29°51' W 093°58'0 0.0
2018-Jun-08 21:28N 29°51' W 093°58'0 0.0
2018-Jun-08 20:58N 29°51' W 093°58'0 0.0
2018-Jun-08 20:28N 29°51' W 093°58'0 0.0
2018-Jun-08 19:58N 29°51' W 093°58'0 0.0
2018-Jun-08 19:28N 29°51' W 093°58'0 0.0
2018-Jun-08 18:58N 29°51' W 093°58'0 0.0
2018-Jun-08 18:28N 29°51' W 093°58'0 0.0
2018-Jun-08 17:58N 29°51' W 093°58'0 0.0
2018-Jun-08 17:28N 29°51' W 093°58'0 0.0
2018-Jun-08 16:58N 29°51' W 093°58'0 0.0
2018-Jun-08 16:28N 29°51' W 093°58'0 0.0
2018-Jun-08 15:58N 29°51' W 093°58'0 0.0
2018-Jun-08 15:28N 29°51' W 093°58'0 0.0
2018-Jun-08 14:58N 29°51' W 093°58'0 0.0
2018-Jun-08 14:28N 29°51' W 093°58'0 0.0
2018-Jun-08 13:58N 29°51' W 093°58'0 0.0
2018-Jun-08 13:25N 29°51' W 093°58'0 0.0
2018-Jun-08 12:58N 29°51' W 093°58'0 0.0
2018-Jun-08 12:28N 29°51' W 093°58'0 0.0
2018-Jun-08 11:58N 29°51' W 093°58'0 0.0
2018-Jun-08 11:28N 29°51' W 093°58'0 0.0
2018-Jun-08 10:58N 29°51' W 093°58'0 0.0
2018-Jun-08 10:28N 29°51' W 093°58'0 0.0
2018-Jun-08 09:58N 29°51' W 093°58'0 0.0
2018-Jun-08 09:28N 29°51' W 093°58'0 0.0
2018-Jun-08 08:58N 29°51' W 093°58'0 0.0
2018-Jun-08 08:28N 29°51' W 093°58'0 0.0
2018-Jun-08 07:58N 29°51' W 093°58'0 0.0
2018-Jun-08 07:28N 29°51' W 093°58'0 0.0
2018-Jun-08 06:58N 29°51' W 093°58'0 0.0
2018-Jun-08 06:28N 29°51' W 093°58'0 0.0
2018-Jun-08 05:58N 29°51' W 093°58'0 0.0
2018-Jun-08 05:28N 29°51' W 093°58'0 0.0
2018-Jun-08 04:58N 29°51' W 093°58'0 0.0
2018-Jun-08 04:28N 29°51' W 093°58'0 0.0
2018-Jun-08 03:58N 29°51' W 093°58'0 0.0
2018-Jun-08 03:28N 29°51' W 093°58'0 0.0
2018-Jun-08 02:58N 29°51' W 093°58'0 0.0
2018-Jun-08 02:28N 29°51' W 093°58'0 0.0
2018-Jun-08 01:58N 29°51' W 093°58'0 0.0
2018-Jun-08 01:28N 29°51' W 093°58'0 0.0
2018-Jun-08 00:58N 29°51' W 093°58'0 0.0
2018-Jun-08 00:28N 29°51' W 093°58'0 0.0
2018-Jun-07 23:58N 29°51' W 093°58'0 0.0
2018-Jun-07 23:28N 29°51' W 093°58'0 0.0
2018-Jun-07 22:58N 29°51' W 093°58'0 0.0
2018-Jun-07 22:25N 29°51' W 093°58'0 0.0
2018-Jun-07 21:58N 29°51' W 093°58'0 0.0
2018-Jun-07 21:28N 29°51' W 093°58'0 0.0
2018-Jun-07 20:58N 29°51' W 093°58'0 0.0
2018-Jun-07 20:28N 29°51' W 093°58'0 0.0
2018-Jun-07 19:55N 29°51' W 093°58'0 0.0
2018-Jun-07 19:28N 29°51' W 093°58'0 0.0
2018-Jun-07 18:58N 29°51' W 093°58'0 0.0
2018-Jun-07 18:28N 29°51' W 093°58'0 0.0
2018-Jun-07 17:58N 29°51' W 093°58'0 0.0
2018-Jun-07 17:28N 29°51' W 093°58'0 0.0
2018-Jun-07 16:58N 29°51' W 093°58'0 0.0
2018-Jun-07 16:28N 29°51' W 093°58'0 0.0
2018-Jun-07 15:58N 29°51' W 093°58'0 0.0
2018-Jun-07 15:28N 29°51' W 093°58'0 0.0
2018-Jun-07 14:58N 29°51' W 093°58'0 0.0
2018-Jun-07 14:28N 29°51' W 093°58'0 0.0
2018-Jun-07 13:58N 29°51' W 093°58'0 0.0
2018-Jun-07 13:28N 29°51' W 093°58'0 0.0
2018-Jun-07 12:58N 29°51' W 093°58'0 0.0
2018-Jun-07 12:28N 29°51' W 093°58'0 0.0
2018-Jun-07 11:58N 29°51' W 093°58'0 0.0
2018-Jun-07 11:28N 29°51' W 093°58'0 0.0
2018-Jun-07 10:58N 29°51' W 093°58'0 0.0
2018-Jun-07 10:28N 29°51' W 093°58'0 0.0
2018-Jun-07 09:58N 29°51' W 093°58'0 0.0
2018-Jun-07 09:28N 29°51' W 093°58'0 0.0
2018-Jun-07 08:58N 29°51' W 093°58'0 0.0
2018-Jun-07 08:25N 29°51' W 093°58'0 0.0
2018-Jun-07 07:55N 29°51' W 093°58'0 0.0
2018-Jun-07 07:28N 29°51' W 093°58'0 0.0
2018-Jun-07 06:58N 29°51' W 093°58'0 0.0
2018-Jun-07 06:28N 29°51' W 093°58'0 0.0
2018-Jun-07 05:55N 29°51' W 093°58'0 0.0
2018-Jun-07 05:28N 29°51' W 093°58'0 0.0
2018-Jun-07 04:58N 29°51' W 093°58'0 0.0
2018-Jun-07 04:28N 29°51' W 093°58'0 0.0
2018-Jun-07 03:58N 29°51' W 093°58'0 0.0
2018-Jun-07 03:28N 29°51' W 093°58'0 0.3
2018-Jun-07 03:00N 29°51' W 093°58'2 3.0
2018-Jun-07 02:30N 29°49' W 093°58'4 8.0
2018-Jun-07 02:00N 29°46' W 093°55'4 7.8
2018-Jun-07 01:30N 29°43' W 093°52'4 8.3
2018-Jun-07 01:00N 29°39' W 093°50'5 9.9
2018-Jun-07 00:30N 29°35' W 093°47'2 3.9
2018-Jun-06 23:58N 29°35' W 093°44'0 0.1
2018-Jun-06 23:28N 29°35' W 093°44'0 0.0
2018-Jun-06 22:58N 29°35' W 093°44'0 0.0
2018-Jun-06 22:28N 29°35' W 093°44'0 0.0
2018-Jun-06 21:58N 29°35' W 093°44'0 0.0
2018-Jun-06 21:28N 29°35' W 093°44'0 0.0
2018-Jun-06 20:55N 29°35' W 093°44'0 0.0
2018-Jun-06 20:28N 29°35' W 093°44'0 0.0
2018-Jun-06 19:55N 29°35' W 093°44'0 0.0
2018-Jun-06 19:28N 29°35' W 093°44'0 0.1
2018-Jun-06 18:58N 29°35' W 093°44'0 0.1
2018-Jun-06 18:28N 29°35' W 093°44'0 0.0
2018-Jun-06 17:55N 29°35' W 093°44'0 0.0
2018-Jun-06 17:28N 29°35' W 093°44'0 0.0
2018-Jun-06 16:58N 29°35' W 093°44'0 0.0
2018-Jun-06 16:28N 29°35' W 093°44'0 0.0
2018-Jun-06 15:58N 29°35' W 093°44'0 0.0
2018-Jun-06 15:25N 29°35' W 093°44'0 0.0
2018-Jun-06 14:58N 29°35' W 093°44'0 0.0
2018-Jun-06 14:28N 29°35' W 093°44'0 0.0
2018-Jun-06 13:58N 29°35' W 093°44'0 0.0
2018-Jun-06 13:28N 29°35' W 093°44'0 0.0
2018-Jun-06 12:58N 29°35' W 093°44'0 0.0
2018-Jun-06 12:28N 29°35' W 093°44'0 0.0
2018-Jun-06 11:58N 29°35' W 093°44'0 0.0
2018-Jun-06 11:28N 29°35' W 093°44'0 0.0
2018-Jun-06 10:58N 29°35' W 093°44'0 0.0
2018-Jun-06 10:28N 29°35' W 093°44'0 0.0
2018-Jun-06 09:58N 29°35' W 093°44'0 0.3
2018-Jun-06 09:19N 29°35' W 093°44'0 1.4
2018-Jun-06 09:01N 29°34' W 093°45'3 6.3
2018-Jun-06 08:30N 29°31' W 093°46'510.8
2018-Jun-06 08:00N 29°30' W 093°52'612.0
2018-Jun-06 07:31N 29°28' W 093°58'612.2
2018-Jun-06 07:00N 29°24' W 094°04'612.2
2018-Jun-06 06:30N 29°20' W 094°09'612.3
2018-Jun-06 06:00N 29°16' W 094°14'712.3
2018-Jun-06 05:26N 29°11' W 094°20'812.1
2018-Jun-06 04:44N 29°07' W 094°28'512.2
2018-Jun-06 04:21N 29°04' W 094°33'512.6
2018-Jun-06 03:55N 29°05' W 094°39'2 4.1
2018-Jun-06 03:30N 29°04' W 094°41'0 0.2
2018-Jun-06 03:00N 29°04' W 094°41'0 0.0
2018-Jun-05 14:00N 29°04' W 094°41'0 0.0
2018-Jun-05 13:29N 29°04' W 094°41'0 0.0
2018-Jun-05 13:00N 29°04' W 094°41'0 0.0
2018-Jun-05 12:29N 29°04' W 094°41'0 0.0
2018-Jun-05 11:59N 29°04' W 094°41'0 0.1
2018-Jun-05 11:30N 29°04' W 094°41'0 0.1
2018-Jun-05 11:00N 29°04' W 094°41'0 0.0
2018-Jun-05 10:30N 29°04' W 094°41'0 0.0
2018-Jun-05 10:00N 29°04' W 094°41'0 0.0
2018-Jun-05 09:30N 29°04' W 094°41'0 0.0
2018-Jun-05 09:00N 29°04' W 094°41'0 0.0
2018-Jun-05 08:30N 29°04' W 094°41'0 0.0
2018-Jun-05 08:00N 29°04' W 094°41'0 0.0
2018-Jun-05 07:27N 29°04' W 094°41'0 0.0
2018-Jun-05 07:00N 29°04' W 094°41'0 0.0
2018-Jun-05 06:30N 29°04' W 094°41'0 0.0
2018-Jun-05 05:57N 29°04' W 094°41'0 0.0
2018-Jun-05 05:30N 29°04' W 094°41'0 0.0
2018-Jun-05 05:00N 29°04' W 094°41'0 0.0
2018-Jun-05 04:30N 29°04' W 094°41'0 0.0
2018-Jun-05 04:00N 29°04' W 094°41'0 0.0
2018-Jun-05 03:30N 29°04' W 094°41'0 0.0
2018-Jun-05 02:57N 29°04' W 094°41'0 0.0
2018-Jun-05 02:30N 29°04' W 094°41'0 0.0
2018-Jun-05 02:00N 29°04' W 094°41'0 0.0
2018-Jun-05 01:30N 29°04' W 094°41'0 0.0
2018-Jun-05 01:00N 29°04' W 094°41'0 0.0
2018-Jun-05 00:30N 29°04' W 094°41'0 0.0
2018-Jun-05 00:00N 29°04' W 094°41'0 0.0
2018-Jun-04 23:27N 29°04' W 094°41'0 0.0
2018-Jun-04 23:00N 29°04' W 094°41'0 0.0
2018-Jun-04 22:30N 29°04' W 094°41'0 0.0
2018-Jun-04 22:00N 29°04' W 094°41'0 0.0
2018-Jun-04 21:27N 29°04' W 094°41'0 0.0
2018-Jun-04 21:00N 29°04' W 094°41'0 0.0
2018-Jun-04 20:24N 29°04' W 094°41'0 0.1
2018-Jun-04 19:57N 29°04' W 094°41'0 1.1
2018-Jun-04 19:30N 29°04' W 094°40'4 7.7
2018-Jun-04 19:00N 29°02' W 094°37'611.3
2018-Jun-04 18:30N 28°59' W 094°31'1810.7
2018-Jun-04 16:48N 28°42' W 094°25'3712.2
2018-Jun-04 13:46N 28°05' W 094°24'  
Track history (hours):
 
Tides and Currents Weather Stations Pressure Air Temp Water Temp Dewpoint Dewpoint Depression Visibility Wind Speed Wind Dir Waves Ship Positions

Minerva Joy

Last reported at 2018-Jun-09 04:24 UTC. Time now 2018-Jun-23 04:36 UTC.
Position N 29°11' W 093°40'.
Warning: this ship's position is 14 days out of date.

Length 179 m; draft 12.1 m.

Type: Ship. MMSI: 229446000.

Date/timePositionNaut miles runAvg speedWind from/ knotsBaromVisibWave heightAir tempDewpointWater temp
2018-Jun-09 04:24N 29°11' W 093°40'410.6
2018-Jun-09 04:01N 29°15' W 093°40'5 9.9
2018-Jun-09 03:28N 29°20' W 093°40'4 9.6
2018-Jun-09 03:00N 29°24' W 093°40'4 7.9
2018-Jun-09 02:30N 29°28' W 093°40'5 9.6
2018-Jun-09 01:57N 29°32' W 093°44'410.1
2018-Jun-09 01:30N 29°35' W 093°48'5 9.9
2018-Jun-09 01:01N 29°40' W 093°50'5 9.4
2018-Jun-09 00:30N 29°44' W 093°52'4 8.3
2018-Jun-09 00:01N 29°46' W 093°56'4 7.0
2018-Jun-08 23:30N 29°50' W 093°58'1 2.1
2018-Jun-08 23:00N 29°51' W 093°58'0 0.1
2018-Jun-08 22:28N 29°51' W 093°58'0 0.0
2018-Jun-08 21:55N 29°51' W 093°58'0 0.0
2018-Jun-08 21:28N 29°51' W 093°58'0 0.0
2018-Jun-08 20:58N 29°51' W 093°58'0 0.0
2018-Jun-08 20:28N 29°51' W 093°58'0 0.0
2018-Jun-08 19:58N 29°51' W 093°58'0 0.0
2018-Jun-08 19:28N 29°51' W 093°58'0 0.0
2018-Jun-08 18:58N 29°51' W 093°58'0 0.0
2018-Jun-08 18:28N 29°51' W 093°58'0 0.0
2018-Jun-08 17:58N 29°51' W 093°58'0 0.0
2018-Jun-08 17:28N 29°51' W 093°58'0 0.0
2018-Jun-08 16:58N 29°51' W 093°58'0 0.0
2018-Jun-08 16:28N 29°51' W 093°58'0 0.0
2018-Jun-08 15:58N 29°51' W 093°58'0 0.0
2018-Jun-08 15:28N 29°51' W 093°58'0 0.0
2018-Jun-08 14:58N 29°51' W 093°58'0 0.0
2018-Jun-08 14:28N 29°51' W 093°58'0 0.0
2018-Jun-08 13:58N 29°51' W 093°58'0 0.0
2018-Jun-08 13:25N 29°51' W 093°58'0 0.0
2018-Jun-08 12:58N 29°51' W 093°58'0 0.0
2018-Jun-08 12:28N 29°51' W 093°58'0 0.0
2018-Jun-08 11:58N 29°51' W 093°58'0 0.0
2018-Jun-08 11:28N 29°51' W 093°58'0 0.0
2018-Jun-08 10:58N 29°51' W 093°58'0 0.0
2018-Jun-08 10:28N 29°51' W 093°58'0 0.0
2018-Jun-08 09:58N 29°51' W 093°58'0 0.0
2018-Jun-08 09:28N 29°51' W 093°58'0 0.0
2018-Jun-08 08:58N 29°51' W 093°58'0 0.0
2018-Jun-08 08:28N 29°51' W 093°58'0 0.0
2018-Jun-08 07:58N 29°51' W 093°58'0 0.0
2018-Jun-08 07:28N 29°51' W 093°58'0 0.0
2018-Jun-08 06:58N 29°51' W 093°58'0 0.0
2018-Jun-08 06:28N 29°51' W 093°58'0 0.0
2018-Jun-08 05:58N 29°51' W 093°58'0 0.0
2018-Jun-08 05:28N 29°51' W 093°58'0 0.0
2018-Jun-08 04:58N 29°51' W 093°58'0 0.0
2018-Jun-08 04:28N 29°51' W 093°58'0 0.0
2018-Jun-08 03:58N 29°51' W 093°58'0 0.0
2018-Jun-08 03:28N 29°51' W 093°58'0 0.0
2018-Jun-08 02:58N 29°51' W 093°58'0 0.0
2018-Jun-08 02:28N 29°51' W 093°58'0 0.0
2018-Jun-08 01:58N 29°51' W 093°58'0 0.0
2018-Jun-08 01:28N 29°51' W 093°58'0 0.0
2018-Jun-08 00:58N 29°51' W 093°58'0 0.0
2018-Jun-08 00:28N 29°51' W 093°58'0 0.0
2018-Jun-07 23:58N 29°51' W 093°58'0 0.0
2018-Jun-07 23:28N 29°51' W 093°58'0 0.0
2018-Jun-07 22:58N 29°51' W 093°58'0 0.0
2018-Jun-07 22:25N 29°51' W 093°58'0 0.0
2018-Jun-07 21:58N 29°51' W 093°58'0 0.0
2018-Jun-07 21:28N 29°51' W 093°58'0 0.0
2018-Jun-07 20:58N 29°51' W 093°58'0 0.0
2018-Jun-07 20:28N 29°51' W 093°58'0 0.0
2018-Jun-07 19:55N 29°51' W 093°58'0 0.0
2018-Jun-07 19:28N 29°51' W 093°58'0 0.0
2018-Jun-07 18:58N 29°51' W 093°58'0 0.0
2018-Jun-07 18:28N 29°51' W 093°58'0 0.0
2018-Jun-07 17:58N 29°51' W 093°58'0 0.0
2018-Jun-07 17:28N 29°51' W 093°58'0 0.0
2018-Jun-07 16:58N 29°51' W 093°58'0 0.0
2018-Jun-07 16:28N 29°51' W 093°58'0 0.0
2018-Jun-07 15:58N 29°51' W 093°58'0 0.0
2018-Jun-07 15:28N 29°51' W 093°58'0 0.0
2018-Jun-07 14:58N 29°51' W 093°58'0 0.0
2018-Jun-07 14:28N 29°51' W 093°58'0 0.0
2018-Jun-07 13:58N 29°51' W 093°58'0 0.0
2018-Jun-07 13:28N 29°51' W 093°58'0 0.0
2018-Jun-07 12:58N 29°51' W 093°58'0 0.0
2018-Jun-07 12:28N 29°51' W 093°58'0 0.0
2018-Jun-07 11:58N 29°51' W 093°58'0 0.0
2018-Jun-07 11:28N 29°51' W 093°58'0 0.0
2018-Jun-07 10:58N 29°51' W 093°58'0 0.0
2018-Jun-07 10:28N 29°51' W 093°58'0 0.0
2018-Jun-07 09:58N 29°51' W 093°58'0 0.0
2018-Jun-07 09:28N 29°51' W 093°58'0 0.0
2018-Jun-07 08:58N 29°51' W 093°58'0 0.0
2018-Jun-07 08:25N 29°51' W 093°58'0 0.0
2018-Jun-07 07:55N 29°51' W 093°58'0 0.0
2018-Jun-07 07:28N 29°51' W 093°58'0 0.0
2018-Jun-07 06:58N 29°51' W 093°58'0 0.0
2018-Jun-07 06:28N 29°51' W 093°58'0 0.0
2018-Jun-07 05:55N 29°51' W 093°58'0 0.0
2018-Jun-07 05:28N 29°51' W 093°58'0 0.0
2018-Jun-07 04:58N 29°51' W 093°58'0 0.0
2018-Jun-07 04:28N 29°51' W 093°58'0 0.0
2018-Jun-07 03:58N 29°51' W 093°58'0 0.0
2018-Jun-07 03:28N 29°51' W 093°58'0 0.3
2018-Jun-07 03:00N 29°51' W 093°58'2 3.0
2018-Jun-07 02:30N 29°49' W 093°58'4 8.0
2018-Jun-07 02:00N 29°46' W 093°55'4 7.8
2018-Jun-07 01:30N 29°43' W 093°52'4 8.3
2018-Jun-07 01:00N 29°39' W 093°50'5 9.9
2018-Jun-07 00:30N 29°35' W 093°47'2 3.9
2018-Jun-06 23:58N 29°35' W 093°44'0 0.1
2018-Jun-06 23:28N 29°35' W 093°44'0 0.0
2018-Jun-06 22:58N 29°35' W 093°44'0 0.0
2018-Jun-06 22:28N 29°35' W 093°44'0 0.0
2018-Jun-06 21:58N 29°35' W 093°44'0 0.0
2018-Jun-06 21:28N 29°35' W 093°44'0 0.0
2018-Jun-06 20:55N 29°35' W 093°44'0 0.0
2018-Jun-06 20:28N 29°35' W 093°44'0 0.0
2018-Jun-06 19:55N 29°35' W 093°44'0 0.0
2018-Jun-06 19:28N 29°35' W 093°44'0 0.1
2018-Jun-06 18:58N 29°35' W 093°44'0 0.1
2018-Jun-06 18:28N 29°35' W 093°44'0 0.0
2018-Jun-06 17:55N 29°35' W 093°44'0 0.0
2018-Jun-06 17:28N 29°35' W 093°44'0 0.0
2018-Jun-06 16:58N 29°35' W 093°44'0 0.0
2018-Jun-06 16:28N 29°35' W 093°44'0 0.0
2018-Jun-06 15:58N 29°35' W 093°44'0 0.0
2018-Jun-06 15:25N 29°35' W 093°44'0 0.0
2018-Jun-06 14:58N 29°35' W 093°44'0 0.0
2018-Jun-06 14:28N 29°35' W 093°44'0 0.0
2018-Jun-06 13:58N 29°35' W 093°44'0 0.0
2018-Jun-06 13:28N 29°35' W 093°44'0 0.0
2018-Jun-06 12:58N 29°35' W 093°44'0 0.0
2018-Jun-06 12:28N 29°35' W 093°44'0 0.0
2018-Jun-06 11:58N 29°35' W 093°44'0 0.0
2018-Jun-06 11:28N 29°35' W 093°44'0 0.0
2018-Jun-06 10:58N 29°35' W 093°44'0 0.0
2018-Jun-06 10:28N 29°35' W 093°44'0 0.0
2018-Jun-06 09:58N 29°35' W 093°44'0 0.3
2018-Jun-06 09:19N 29°35' W 093°44'0 1.4
2018-Jun-06 09:01N 29°34' W 093°45'3 6.3
2018-Jun-06 08:30N 29°31' W 093°46'510.8
2018-Jun-06 08:00N 29°30' W 093°52'612.0
2018-Jun-06 07:31N 29°28' W 093°58'612.2
2018-Jun-06 07:00N 29°24' W 094°04'612.2
2018-Jun-06 06:30N 29°20' W 094°09'612.3
2018-Jun-06 06:00N 29°16' W 094°14'712.3
2018-Jun-06 05:26N 29°11' W 094°20'812.1
2018-Jun-06 04:44N 29°07' W 094°28'512.2
2018-Jun-06 04:21N 29°04' W 094°33'512.6
2018-Jun-06 03:55N 29°05' W 094°39'2 4.1
2018-Jun-06 03:30N 29°04' W 094°41'0 0.2
2018-Jun-06 03:00N 29°04' W 094°41'0 0.0
2018-Jun-05 14:00N 29°04' W 094°41'0 0.0
2018-Jun-05 13:29N 29°04' W 094°41'0 0.0
2018-Jun-05 13:00N 29°04' W 094°41'0 0.0
2018-Jun-05 12:29N 29°04' W 094°41'0 0.0
2018-Jun-05 11:59N 29°04' W 094°41'0 0.1
2018-Jun-05 11:30N 29°04' W 094°41'0 0.1
2018-Jun-05 11:00N 29°04' W 094°41'0 0.0
2018-Jun-05 10:30N 29°04' W 094°41'0 0.0
2018-Jun-05 10:00N 29°04' W 094°41'0 0.0
2018-Jun-05 09:30N 29°04' W 094°41'0 0.0
2018-Jun-05 09:00N 29°04' W 094°41'0 0.0
2018-Jun-05 08:30N 29°04' W 094°41'0 0.0
2018-Jun-05 08:00N 29°04' W 094°41'0 0.0
2018-Jun-05 07:27N 29°04' W 094°41'0 0.0
2018-Jun-05 07:00N 29°04' W 094°41'0 0.0
2018-Jun-05 06:30N 29°04' W 094°41'0 0.0
2018-Jun-05 05:57N 29°04' W 094°41'0 0.0
2018-Jun-05 05:30N 29°04' W 094°41'0 0.0
2018-Jun-05 05:00N 29°04' W 094°41'0 0.0
2018-Jun-05 04:30N 29°04' W 094°41'0 0.0
2018-Jun-05 04:00N 29°04' W 094°41'0 0.0
2018-Jun-05 03:30N 29°04' W 094°41'0 0.0
2018-Jun-05 02:57N 29°04' W 094°41'0 0.0
2018-Jun-05 02:30N 29°04' W 094°41'0 0.0
2018-Jun-05 02:00N 29°04' W 094°41'0 0.0
2018-Jun-05 01:30N 29°04' W 094°41'0 0.0
2018-Jun-05 01:00N 29°04' W 094°41'0 0.0
2018-Jun-05 00:30N 29°04' W 094°41'0 0.0
2018-Jun-05 00:00N 29°04' W 094°41'0 0.0
2018-Jun-04 23:27N 29°04' W 094°41'0 0.0
2018-Jun-04 23:00N 29°04' W 094°41'0 0.0
2018-Jun-04 22:30N 29°04' W 094°41'0 0.0
2018-Jun-04 22:00N 29°04' W 094°41'0 0.0
2018-Jun-04 21:27N 29°04' W 094°41'0 0.0
2018-Jun-04 21:00N 29°04' W 094°41'0 0.0
2018-Jun-04 20:24N 29°04' W 094°41'0 0.1
2018-Jun-04 19:57N 29°04' W 094°41'0 1.1
2018-Jun-04 19:30N 29°04' W 094°40'4 7.7
2018-Jun-04 19:00N 29°02' W 094°37'611.3
2018-Jun-04 18:30N 28°59' W 094°31'1810.7
2018-Jun-04 16:48N 28°42' W 094°25'3712.2
2018-Jun-04 13:46N 28°05' W 094°24'  

Dump ship's entire track history